sensor_id;sensor_type;location;lat;lon;timestamp;pressure;altitude;pressure_sealevel;temperature;humidity
55755;BME280;41674;52.290;-1.474;2023-08-21T00:01:01;101665.02;;;19.10;68.19
55755;BME280;41674;52.290;-1.474;2023-08-21T00:03:30;101664.54;;;19.08;68.39
55755;BME280;41674;52.290;-1.474;2023-08-21T00:06:00;101668.01;;;18.76;69.04
55755;BME280;41674;52.290;-1.474;2023-08-21T00:08:29;101664.04;;;18.66;69.06
55755;BME280;41674;52.290;-1.474;2023-08-21T00:11:00;101665.99;;;18.57;68.85
55755;BME280;41674;52.290;-1.474;2023-08-21T00:13:29;101665.84;;;18.00;69.58
55755;BME280;41674;52.290;-1.474;2023-08-21T00:15:58;101668.41;;;18.58;68.42
55755;BME280;41674;52.290;-1.474;2023-08-21T00:18:28;101666.07;;;18.59;68.50
55755;BME280;41674;52.290;-1.474;2023-08-21T00:20:57;101667.66;;;18.08;69.13
55755;BME280;41674;52.290;-1.474;2023-08-21T00:23:27;101668.94;;;18.18;69.99
55755;BME280;41674;52.290;-1.474;2023-08-21T00:25:57;101668.15;;;18.34;68.99
55755;BME280;41674;52.290;-1.474;2023-08-21T00:28:26;101668.77;;;18.29;69.12
55755;BME280;41674;52.290;-1.474;2023-08-21T00:31:01;101668.25;;;18.19;69.76
55755;BME280;41674;52.290;-1.474;2023-08-21T00:33:25;101669.90;;;17.46;72.41
55755;BME280;41674;52.290;-1.474;2023-08-21T00:35:55;101673.01;;;17.73;70.99
55755;BME280;41674;52.290;-1.474;2023-08-21T00:38:25;101672.81;;;17.72;72.90
55755;BME280;41674;52.290;-1.474;2023-08-21T00:40:54;101677.04;;;17.72;72.32
55755;BME280;41674;52.290;-1.474;2023-08-21T00:43:24;101680.09;;;18.25;71.09
55755;BME280;41674;52.290;-1.474;2023-08-21T00:45:53;101679.47;;;18.13;69.07
55755;BME280;41674;52.290;-1.474;2023-08-21T00:48:23;101677.50;;;18.52;68.63
55755;BME280;41674;52.290;-1.474;2023-08-21T00:50:52;101678.77;;;18.13;68.00
55755;BME280;41674;52.290;-1.474;2023-08-21T00:53:22;101680.59;;;18.64;66.85
55755;BME280;41674;52.290;-1.474;2023-08-21T00:55:51;101680.73;;;18.50;66.87
55755;BME280;41674;52.290;-1.474;2023-08-21T00:58:21;101681.05;;;18.57;66.35
55755;BME280;41674;52.290;-1.474;2023-08-21T01:00:52;101678.66;;;18.68;65.86
55755;BME280;41674;52.290;-1.474;2023-08-21T01:03:20;101680.75;;;18.50;66.78
55755;BME280;41674;52.290;-1.474;2023-08-21T01:05:50;101680.88;;;18.48;67.78
55755;BME280;41674;52.290;-1.474;2023-08-21T01:08:25;101682.05;;;18.69;66.87
55755;BME280;41674;52.290;-1.474;2023-08-21T01:10:53;101683.46;;;18.00;68.69
55755;BME280;41674;52.290;-1.474;2023-08-21T01:13:31;101680.83;;;18.35;68.07
55755;BME280;41674;52.290;-1.474;2023-08-21T01:15:50;101680.86;;;18.02;69.77
55755;BME280;41674;52.290;-1.474;2023-08-21T01:20:48;101682.31;;;18.24;69.00
55755;BME280;41674;52.290;-1.474;2023-08-21T01:23:28;101684.65;;;18.16;69.45
55755;BME280;41674;52.290;-1.474;2023-08-21T01:25:46;101685.33;;;18.11;69.78
55755;BME280;41674;52.290;-1.474;2023-08-21T01:28:16;101685.86;;;18.35;69.38
55755;BME280;41674;52.290;-1.474;2023-08-21T01:30:46;101686.91;;;18.02;70.18
55755;BME280;41674;52.290;-1.474;2023-08-21T01:33:15;101684.36;;;18.41;69.98
55755;BME280;41674;52.290;-1.474;2023-08-21T01:35:45;101686.26;;;17.65;70.02
55755;BME280;41674;52.290;-1.474;2023-08-21T01:38:14;101691.96;;;17.14;71.79
55755;BME280;41674;52.290;-1.474;2023-08-21T01:40:44;101683.61;;;17.63;71.47
55755;BME280;41674;52.290;-1.474;2023-08-21T01:43:13;101693.05;;;16.86;74.15
55755;BME280;41674;52.290;-1.474;2023-08-21T01:45:43;101694.42;;;17.21;73.37
55755;BME280;41674;52.290;-1.474;2023-08-21T01:48:12;101694.68;;;17.20;72.17
55755;BME280;41674;52.290;-1.474;2023-08-21T01:50:42;101691.54;;;17.68;70.54
55755;BME280;41674;52.290;-1.474;2023-08-21T01:53:12;101691.98;;;17.41;71.28
55755;BME280;41674;52.290;-1.474;2023-08-21T01:55:41;101690.48;;;17.25;71.40
55755;BME280;41674;52.290;-1.474;2023-08-21T01:58:11;101691.12;;;17.20;72.29
55755;BME280;41674;52.290;-1.474;2023-08-21T02:00:40;101690.55;;;17.16;71.87
55755;BME280;41674;52.290;-1.474;2023-08-21T02:03:10;101687.93;;;17.03;72.99
55755;BME280;41674;52.290;-1.474;2023-08-21T02:05:40;101692.70;;;16.78;72.85
55755;BME280;41674;52.290;-1.474;2023-08-21T02:08:12;101687.15;;;16.99;72.68
55755;BME280;41674;52.290;-1.474;2023-08-21T02:10:48;101687.52;;;17.10;72.97
55755;BME280;41674;52.290;-1.474;2023-08-21T02:13:08;101684.08;;;16.60;74.77
55755;BME280;41674;52.290;-1.474;2023-08-21T02:15:39;101682.34;;;16.28;75.68
55755;BME280;41674;52.290;-1.474;2023-08-21T02:18:09;101681.28;;;16.62;75.05
55755;BME280;41674;52.290;-1.474;2023-08-21T02:20:37;101681.51;;;16.44;74.85
55755;BME280;41674;52.290;-1.474;2023-08-21T02:23:06;101685.31;;;16.34;75.13
55755;BME280;41674;52.290;-1.474;2023-08-21T02:25:36;101689.00;;;17.04;73.62
55755;BME280;41674;52.290;-1.474;2023-08-21T02:28:06;101688.99;;;17.07;72.11
55755;BME280;41674;52.290;-1.474;2023-08-21T02:30:35;101689.58;;;17.07;72.14
55755;BME280;41674;52.290;-1.474;2023-08-21T02:33:05;101686.33;;;16.95;71.62
55755;BME280;41674;52.290;-1.474;2023-08-21T02:35:34;101687.37;;;16.48;71.99
55755;BME280;41674;52.290;-1.474;2023-08-21T02:38:04;101688.24;;;16.95;71.20
55755;BME280;41674;52.290;-1.474;2023-08-21T02:40:35;101687.42;;;16.47;71.72
55755;BME280;41674;52.290;-1.474;2023-08-21T02:43:04;101686.49;;;16.41;71.79
55755;BME280;41674;52.290;-1.474;2023-08-21T02:45:33;101689.21;;;16.88;68.16
55755;BME280;41674;52.290;-1.474;2023-08-21T02:48:03;101688.93;;;16.59;66.66
55755;BME280;41674;52.290;-1.474;2023-08-21T02:50:32;101693.49;;;16.36;66.41
55755;BME280;41674;52.290;-1.474;2023-08-21T02:53:02;101696.95;;;16.57;65.29
55755;BME280;41674;52.290;-1.474;2023-08-21T02:55:31;101697.50;;;16.73;64.29
55755;BME280;41674;52.290;-1.474;2023-08-21T02:58:01;101697.16;;;16.05;68.62
55755;BME280;41674;52.290;-1.474;2023-08-21T03:00:30;101696.03;;;16.16;67.78
55755;BME280;41674;52.290;-1.474;2023-08-21T03:03:00;101699.85;;;16.79;65.83
55755;BME280;41674;52.290;-1.474;2023-08-21T03:05:29;101700.46;;;16.41;66.31
55755;BME280;41674;52.290;-1.474;2023-08-21T03:07:59;101698.98;;;16.56;66.60
55755;BME280;41674;52.290;-1.474;2023-08-21T03:10:29;101697.19;;;16.90;66.36
55755;BME280;41674;52.290;-1.474;2023-08-21T03:12:58;101695.27;;;16.94;65.31
55755;BME280;41674;52.290;-1.474;2023-08-21T03:15:28;101700.09;;;16.40;66.84
55755;BME280;41674;52.290;-1.474;2023-08-21T03:17:57;101695.92;;;16.96;65.06
55755;BME280;41674;52.290;-1.474;2023-08-21T03:20:27;101696.28;;;16.43;64.90
55755;BME280;41674;52.290;-1.474;2023-08-21T03:22:57;101696.51;;;16.78;63.50
55755;BME280;41674;52.290;-1.474;2023-08-21T03:25:27;101693.82;;;16.48;64.39
55755;BME280;41674;52.290;-1.474;2023-08-21T03:27:56;101694.46;;;16.34;66.58
55755;BME280;41674;52.290;-1.474;2023-08-21T03:30:25;101695.78;;;16.66;66.35
55755;BME280;41674;52.290;-1.474;2023-08-21T03:32:55;101690.76;;;16.31;68.04
55755;BME280;41674;52.290;-1.474;2023-08-21T03:35:24;101692.98;;;16.12;67.87
55755;BME280;41674;52.290;-1.474;2023-08-21T03:37:54;101691.73;;;15.77;68.53
55755;BME280;41674;52.290;-1.474;2023-08-21T03:40:24;101691.30;;;15.51;69.21
55755;BME280;41674;52.290;-1.474;2023-08-21T03:42:53;101690.95;;;15.50;68.16
55755;BME280;41674;52.290;-1.474;2023-08-21T03:45:23;101695.52;;;15.18;68.64
55755;BME280;41674;52.290;-1.474;2023-08-21T03:47:53;101692.59;;;14.80;70.07
55755;BME280;41674;52.290;-1.474;2023-08-21T03:50:22;101690.48;;;15.25;68.94
55755;BME280;41674;52.290;-1.474;2023-08-21T03:52:52;101695.20;;;15.55;67.17
55755;BME280;41674;52.290;-1.474;2023-08-21T03:55:21;101688.49;;;14.63;67.92
55755;BME280;41674;52.290;-1.474;2023-08-21T03:57:51;101689.71;;;14.44;70.61
55755;BME280;41674;52.290;-1.474;2023-08-21T04:00:21;101692.78;;;14.29;73.16
55755;BME280;41674;52.290;-1.474;2023-08-21T04:02:50;101690.07;;;15.07;70.47
55755;BME280;41674;52.290;-1.474;2023-08-21T04:05:20;101687.81;;;14.96;69.50
55755;BME280;41674;52.290;-1.474;2023-08-21T04:07:49;101683.47;;;15.05;71.31
55755;BME280;41674;52.290;-1.474;2023-08-21T04:10:19;101685.55;;;15.54;70.37
55755;BME280;41674;52.290;-1.474;2023-08-21T04:12:49;101686.44;;;15.12;72.61
55755;BME280;41674;52.290;-1.474;2023-08-21T04:15:18;101680.55;;;15.29;71.87
55755;BME280;41674;52.290;-1.474;2023-08-21T04:17:48;101682.91;;;15.36;73.13
55755;BME280;41674;52.290;-1.474;2023-08-21T04:20:19;101684.38;;;14.72;74.39
55755;BME280;41674;52.290;-1.474;2023-08-21T04:22:47;101685.22;;;15.75;73.06
55755;BME280;41674;52.290;-1.474;2023-08-21T04:25:17;101686.44;;;15.03;74.14
55755;BME280;41674;52.290;-1.474;2023-08-21T04:27:46;101688.65;;;15.22;74.87
55755;BME280;41674;52.290;-1.474;2023-08-21T04:30:16;101692.18;;;14.86;75.90
55755;BME280;41674;52.290;-1.474;2023-08-21T04:32:46;101690.90;;;15.21;74.61
55755;BME280;41674;52.290;-1.474;2023-08-21T04:35:15;101690.61;;;14.76;71.10
55755;BME280;41674;52.290;-1.474;2023-08-21T04:37:46;101691.38;;;14.73;68.80
55755;BME280;41674;52.290;-1.474;2023-08-21T04:40:14;101692.16;;;15.69;66.46
55755;BME280;41674;52.290;-1.474;2023-08-21T04:42:44;101693.75;;;16.02;64.51
55755;BME280;41674;52.290;-1.474;2023-08-21T04:45:14;101692.69;;;15.22;65.76
55755;BME280;41674;52.290;-1.474;2023-08-21T04:47:43;101689.37;;;15.80;65.15
55755;BME280;41674;52.290;-1.474;2023-08-21T04:50:13;101684.97;;;15.74;64.84
55755;BME280;41674;52.290;-1.474;2023-08-21T04:52:42;101683.68;;;15.31;67.22
55755;BME280;41674;52.290;-1.474;2023-08-21T04:55:12;101686.98;;;15.96;64.27
55755;BME280;41674;52.290;-1.474;2023-08-21T04:57:42;101687.57;;;15.56;63.85
55755;BME280;41674;52.290;-1.474;2023-08-21T05:00:12;101687.65;;;15.89;64.64
55755;BME280;41674;52.290;-1.474;2023-08-21T05:02:41;101682.06;;;16.06;63.83
55755;BME280;41674;52.290;-1.474;2023-08-21T05:05:11;101681.89;;;15.89;62.93
55755;BME280;41674;52.290;-1.474;2023-08-21T05:07:40;101685.12;;;15.39;64.51
55755;BME280;41674;52.290;-1.474;2023-08-21T05:10:10;101683.51;;;15.29;65.57
55755;BME280;41674;52.290;-1.474;2023-08-21T05:12:39;101685.91;;;15.63;65.90
55755;BME280;41674;52.290;-1.474;2023-08-21T05:15:09;101687.89;;;15.05;66.83
55755;BME280;41674;52.290;-1.474;2023-08-21T05:17:38;101687.23;;;14.95;67.24
55755;BME280;41674;52.290;-1.474;2023-08-21T05:20:09;101688.30;;;14.46;68.85
55755;BME280;41674;52.290;-1.474;2023-08-21T05:22:38;101690.42;;;14.14;70.86
55755;BME280;41674;52.290;-1.474;2023-08-21T05:25:08;101692.31;;;14.61;70.09
55755;BME280;41674;52.290;-1.474;2023-08-21T05:27:37;101692.01;;;14.75;69.29
55755;BME280;41674;52.290;-1.474;2023-08-21T05:30:08;101694.85;;;14.87;68.63
55755;BME280;41674;52.290;-1.474;2023-08-21T05:32:36;101693.18;;;14.46;70.38
55755;BME280;41674;52.290;-1.474;2023-08-21T05:35:06;101697.96;;;14.89;70.34
55755;BME280;41674;52.290;-1.474;2023-08-21T05:37:35;101698.58;;;14.37;70.36
55755;BME280;41674;52.290;-1.474;2023-08-21T05:40:06;101698.28;;;14.32;71.26
55755;BME280;41674;52.290;-1.474;2023-08-21T05:42:35;101702.43;;;14.38;71.32
55755;BME280;41674;52.290;-1.474;2023-08-21T05:45:05;101702.47;;;14.68;72.34
55755;BME280;41674;52.290;-1.474;2023-08-21T05:47:34;101703.37;;;14.32;72.34
55755;BME280;41674;52.290;-1.474;2023-08-21T05:50:04;101705.54;;;14.51;73.24
55755;BME280;41674;52.290;-1.474;2023-08-21T05:52:33;101712.86;;;14.46;72.43
55755;BME280;41674;52.290;-1.474;2023-08-21T05:55:05;101717.66;;;14.17;74.34
55755;BME280;41674;52.290;-1.474;2023-08-21T05:57:32;101721.65;;;14.46;76.20
55755;BME280;41674;52.290;-1.474;2023-08-21T06:00:02;101718.09;;;14.97;76.90
55755;BME280;41674;52.290;-1.474;2023-08-21T06:02:31;101723.44;;;14.19;89.16
55755;BME280;41674;52.290;-1.474;2023-08-21T06:05:01;101725.81;;;14.21;95.15
55755;BME280;41674;52.290;-1.474;2023-08-21T06:07:32;101731.93;;;14.34;100.00
55755;BME280;41674;52.290;-1.474;2023-08-21T06:10:00;101725.45;;;15.04;98.52
55755;BME280;41674;52.290;-1.474;2023-08-21T06:12:30;101729.36;;;14.50;100.00
55755;BME280;41674;52.290;-1.474;2023-08-21T06:14:59;101727.36;;;14.22;100.00
55755;BME280;41674;52.290;-1.474;2023-08-21T06:17:29;101723.63;;;13.90;100.00
55755;BME280;41674;52.290;-1.474;2023-08-21T06:19:58;101725.83;;;14.81;100.00
55755;BME280;41674;52.290;-1.474;2023-08-21T06:22:28;101728.50;;;14.73;100.00
55755;BME280;41674;52.290;-1.474;2023-08-21T06:24:57;101725.93;;;14.40;100.00
55755;BME280;41674;52.290;-1.474;2023-08-21T06:27:26;101723.51;;;14.75;100.00
55755;BME280;41674;52.290;-1.474;2023-08-21T06:29:56;101720.54;;;14.40;100.00
55755;BME280;41674;52.290;-1.474;2023-08-21T06:32:25;101720.96;;;14.82;100.00
55755;BME280;41674;52.290;-1.474;2023-08-21T06:34:55;101715.51;;;14.78;100.00
55755;BME280;41674;52.290;-1.474;2023-08-21T06:37:24;101712.60;;;14.95;100.00
55755;BME280;41674;52.290;-1.474;2023-08-21T06:39:54;101709.46;;;14.22;100.00
55755;BME280;41674;52.290;-1.474;2023-08-21T06:42:23;101707.88;;;14.73;100.00
55755;BME280;41674;52.290;-1.474;2023-08-21T06:44:53;101714.08;;;15.21;100.00
55755;BME280;41674;52.290;-1.474;2023-08-21T06:47:23;101714.87;;;15.77;100.00
55755;BME280;41674;52.290;-1.474;2023-08-21T06:49:52;101717.80;;;15.63;100.00
55755;BME280;41674;52.290;-1.474;2023-08-21T06:52:22;101722.31;;;14.91;100.00
55755;BME280;41674;52.290;-1.474;2023-08-21T06:54:51;101716.35;;;15.98;100.00
55755;BME280;41674;52.290;-1.474;2023-08-21T06:57:21;101716.94;;;15.78;100.00
55755;BME280;41674;52.290;-1.474;2023-08-21T06:59:50;101724.20;;;15.22;100.00
55755;BME280;41674;52.290;-1.474;2023-08-21T07:02:20;101722.34;;;15.63;100.00
55755;BME280;41674;52.290;-1.474;2023-08-21T07:04:50;101722.53;;;16.15;100.00
55755;BME280;41674;52.290;-1.474;2023-08-21T07:07:19;101728.36;;;15.56;100.00
55755;BME280;41674;52.290;-1.474;2023-08-21T07:09:50;101728.78;;;15.18;100.00
55755;BME280;41674;52.290;-1.474;2023-08-21T07:12:18;101736.56;;;15.40;100.00
55755;BME280;41674;52.290;-1.474;2023-08-21T07:14:48;101734.85;;;16.32;100.00
55755;BME280;41674;52.290;-1.474;2023-08-21T07:17:17;101737.74;;;16.63;99.37
55755;BME280;41674;52.290;-1.474;2023-08-21T07:19:47;101743.41;;;16.62;98.64
55755;BME280;41674;52.290;-1.474;2023-08-21T07:22:17;101741.96;;;17.15;96.20
55755;BME280;41674;52.290;-1.474;2023-08-21T07:24:46;101740.36;;;16.85;97.43
55755;BME280;41674;52.290;-1.474;2023-08-21T07:27:16;101733.41;;;16.62;96.31
55755;BME280;41674;52.290;-1.474;2023-08-21T07:29:45;101737.66;;;16.69;96.75
55755;BME280;41674;52.290;-1.474;2023-08-21T07:32:15;101744.98;;;17.50;94.22
55755;BME280;41674;52.290;-1.474;2023-08-21T07:34:44;101742.62;;;17.02;96.70
55755;BME280;41674;52.290;-1.474;2023-08-21T07:37:14;101745.09;;;16.25;97.14
55755;BME280;41674;52.290;-1.474;2023-08-21T07:39:44;101739.63;;;16.40;98.61
55755;BME280;41674;52.290;-1.474;2023-08-21T07:42:13;101738.49;;;16.77;98.22
55755;BME280;41674;52.290;-1.474;2023-08-21T07:44:44;101741.62;;;17.19;94.62
55755;BME280;41674;52.290;-1.474;2023-08-21T07:47:13;101740.43;;;16.36;98.02
55755;BME280;41674;52.290;-1.474;2023-08-21T07:49:42;101740.98;;;16.25;97.62
55755;BME280;41674;52.290;-1.474;2023-08-21T07:52:12;101738.35;;;16.21;97.68
55755;BME280;41674;52.290;-1.474;2023-08-21T07:54:41;101738.12;;;16.53;97.04
55755;BME280;41674;52.290;-1.474;2023-08-21T07:57:12;101735.97;;;16.53;97.71
55755;BME280;41674;52.290;-1.474;2023-08-21T07:59:40;101737.63;;;16.41;98.12
55755;BME280;41674;52.290;-1.474;2023-08-21T08:02:10;101733.61;;;16.32;96.60
55755;BME280;41674;52.290;-1.474;2023-08-21T08:04:39;101726.79;;;16.47;95.75
55755;BME280;41674;52.290;-1.474;2023-08-21T08:07:09;101727.72;;;16.67;96.01
55755;BME280;41674;52.290;-1.474;2023-08-21T08:09:39;101730.46;;;16.83;94.08
55755;BME280;41674;52.290;-1.474;2023-08-21T08:12:08;101725.32;;;16.47;95.23
55755;BME280;41674;52.290;-1.474;2023-08-21T08:14:38;101722.31;;;17.47;93.85
55755;BME280;41674;52.290;-1.474;2023-08-21T08:17:07;101727.80;;;16.99;91.93
55755;BME280;41674;52.290;-1.474;2023-08-21T08:19:36;101723.33;;;17.40;90.96
55755;BME280;41674;52.290;-1.474;2023-08-21T08:22:06;101718.43;;;17.63;90.41
55755;BME280;41674;52.290;-1.474;2023-08-21T08:24:36;101722.36;;;17.42;88.22
55755;BME280;41674;52.290;-1.474;2023-08-21T08:27:05;101720.11;;;17.65;88.90
55755;BME280;41674;52.290;-1.474;2023-08-21T08:29:36;101712.81;;;17.93;86.80
55755;BME280;41674;52.290;-1.474;2023-08-21T08:32:05;101716.72;;;17.60;87.81
55755;BME280;41674;52.290;-1.474;2023-08-21T08:34:34;101712.18;;;18.30;85.41
55755;BME280;41674;52.290;-1.474;2023-08-21T08:37:04;101718.49;;;18.11;84.52
55755;BME280;41674;52.290;-1.474;2023-08-21T08:39:33;101722.67;;;18.51;83.78
55755;BME280;41674;52.290;-1.474;2023-08-21T08:42:05;101721.85;;;18.48;82.51
55755;BME280;41674;52.290;-1.474;2023-08-21T08:44:35;101723.49;;;18.70;83.37
55755;BME280;41674;52.290;-1.474;2023-08-21T08:47:01;101728.58;;;18.47;82.53
55755;BME280;41674;52.290;-1.474;2023-08-21T08:49:30;101725.94;;;18.16;82.64
55755;BME280;41674;52.290;-1.474;2023-08-21T08:52:05;101723.05;;;19.06;80.17
55755;BME280;41674;52.290;-1.474;2023-08-21T08:54:30;101722.44;;;18.98;80.87
55755;BME280;41674;52.290;-1.474;2023-08-21T08:56:59;101721.64;;;18.33;80.09
55755;BME280;41674;52.290;-1.474;2023-08-21T08:59:30;101728.04;;;17.40;84.53
55755;BME280;41674;52.290;-1.474;2023-08-21T09:01:58;101721.06;;;18.53;81.49
55755;BME280;41674;52.290;-1.474;2023-08-21T09:04:27;101721.82;;;17.52;85.99
55755;BME280;41674;52.290;-1.474;2023-08-21T09:07:06;101713.92;;;17.80;81.03
55755;BME280;41674;52.290;-1.474;2023-08-21T09:09:26;101716.59;;;18.33;79.29
55755;BME280;41674;52.290;-1.474;2023-08-21T09:11:55;101714.03;;;17.81;79.25
55755;BME280;41674;52.290;-1.474;2023-08-21T09:14:27;101719.33;;;18.07;77.84
55755;BME280;41674;52.290;-1.474;2023-08-21T09:17:00;101730.11;;;18.59;77.15
55755;BME280;41674;52.290;-1.474;2023-08-21T09:19:24;101732.86;;;18.74;75.53
55755;BME280;41674;52.290;-1.474;2023-08-21T09:21:53;101728.41;;;17.96;76.61
55755;BME280;41674;52.290;-1.474;2023-08-21T09:24:22;101731.97;;;18.36;76.60
55755;BME280;41674;52.290;-1.474;2023-08-21T09:26:52;101731.43;;;18.05;78.69
55755;BME280;41674;52.290;-1.474;2023-08-21T09:29:22;101738.95;;;17.89;80.22
55755;BME280;41674;52.290;-1.474;2023-08-21T09:31:56;101740.52;;;17.61;80.97
55755;BME280;41674;52.290;-1.474;2023-08-21T09:34:21;101731.45;;;17.86;79.13
55755;BME280;41674;52.290;-1.474;2023-08-21T09:36:54;101727.24;;;18.11;78.69
55755;BME280;41674;52.290;-1.474;2023-08-21T09:39:20;101724.67;;;18.54;76.21
55755;BME280;41674;52.290;-1.474;2023-08-21T09:41:55;101727.67;;;18.30;77.35
55755;BME280;41674;52.290;-1.474;2023-08-21T09:44:18;101731.19;;;18.29;78.35
55755;BME280;41674;52.290;-1.474;2023-08-21T09:46:50;101726.94;;;19.11;75.58
55755;BME280;41674;52.290;-1.474;2023-08-21T09:49:17;101729.91;;;19.62;73.50
55755;BME280;41674;52.290;-1.474;2023-08-21T09:51:47;101724.21;;;19.50;73.81
55755;BME280;41674;52.290;-1.474;2023-08-21T09:54:16;101721.64;;;20.16;71.17
55755;BME280;41674;52.290;-1.474;2023-08-21T09:56:46;101725.73;;;19.54;72.43
55755;BME280;41674;52.290;-1.474;2023-08-21T10:01:46;101714.83;;;18.74;74.47
55755;BME280;41674;52.290;-1.474;2023-08-21T10:04:14;101706.96;;;19.48;72.65
55755;BME280;41674;52.290;-1.474;2023-08-21T10:06:45;101708.87;;;19.97;73.19
55755;BME280;41674;52.290;-1.474;2023-08-21T10:09:14;101711.65;;;19.16;74.38
55755;BME280;41674;52.290;-1.474;2023-08-21T10:11:43;101707.16;;;20.09;73.21
55755;BME280;41674;52.290;-1.474;2023-08-21T10:14:13;101707.42;;;19.50;73.50
55755;BME280;41674;52.290;-1.474;2023-08-21T10:16:42;101710.87;;;19.46;70.63
55755;BME280;41674;52.290;-1.474;2023-08-21T10:19:15;101714.97;;;19.66;69.55
55755;BME280;41674;52.290;-1.474;2023-08-21T10:21:41;101715.55;;;18.81;71.28
55755;BME280;41674;52.290;-1.474;2023-08-21T10:24:11;101709.08;;;19.14;70.46
55755;BME280;41674;52.290;-1.474;2023-08-21T10:26:40;101711.15;;;19.09;69.88
55755;BME280;41674;52.290;-1.474;2023-08-21T10:29:10;101712.15;;;19.25;70.81
55755;BME280;41674;52.290;-1.474;2023-08-21T10:31:41;101706.02;;;19.26;69.19
55755;BME280;41674;52.290;-1.474;2023-08-21T10:34:10;101702.31;;;19.13;70.50
55755;BME280;41674;52.290;-1.474;2023-08-21T10:36:40;101693.26;;;19.05;72.06
55755;BME280;41674;52.290;-1.474;2023-08-21T10:39:14;101689.92;;;20.22;70.27
55755;BME280;41674;52.290;-1.474;2023-08-21T10:41:37;101689.61;;;20.15;68.44
55755;BME280;41674;52.290;-1.474;2023-08-21T10:44:07;101683.46;;;20.21;66.77
55755;BME280;41674;52.290;-1.474;2023-08-21T10:46:49;101681.57;;;20.05;66.96
55755;BME280;41674;52.290;-1.474;2023-08-21T10:49:06;101673.29;;;19.06;71.03
55755;BME280;41674;52.290;-1.474;2023-08-21T10:51:36;101665.86;;;19.87;66.89
55755;BME280;41674;52.290;-1.474;2023-08-21T10:54:10;101661.15;;;20.12;66.65
55755;BME280;41674;52.290;-1.474;2023-08-21T10:56:35;101661.76;;;20.21;63.97
55755;BME280;41674;52.290;-1.474;2023-08-21T10:59:04;101661.05;;;20.77;62.15
55755;BME280;41674;52.290;-1.474;2023-08-21T11:01:43;101664.61;;;20.87;61.78
55755;BME280;41674;52.290;-1.474;2023-08-21T11:04:04;101659.69;;;19.74;65.44
55755;BME280;41674;52.290;-1.474;2023-08-21T11:06:33;101659.20;;;21.52;62.60
55755;BME280;41674;52.290;-1.474;2023-08-21T11:09:03;101657.79;;;21.31;62.07
55755;BME280;41674;52.290;-1.474;2023-08-21T11:11:35;101656.55;;;21.98;58.73
55755;BME280;41674;52.290;-1.474;2023-08-21T11:14:03;101659.22;;;21.84;62.17
55755;BME280;41674;52.290;-1.474;2023-08-21T11:16:31;101665.05;;;21.27;61.60
55755;BME280;41674;52.290;-1.474;2023-08-21T11:19:04;101659.69;;;20.94;65.29
55755;BME280;41674;52.290;-1.474;2023-08-21T11:21:30;101653.19;;;20.56;64.90
55755;BME280;41674;52.290;-1.474;2023-08-21T11:24:00;101654.80;;;20.52;64.91
55755;BME280;41674;52.290;-1.474;2023-08-21T11:26:29;101654.69;;;20.61;63.43
55755;BME280;41674;52.290;-1.474;2023-08-21T11:28:59;101653.34;;;21.02;63.49
55755;BME280;41674;52.290;-1.474;2023-08-21T11:31:28;101652.19;;;21.44;62.12
55755;BME280;41674;52.290;-1.474;2023-08-21T11:33:58;101653.08;;;21.54;61.56
55755;BME280;41674;52.290;-1.474;2023-08-21T11:36:28;101644.54;;;21.57;60.43
55755;BME280;41674;52.290;-1.474;2023-08-21T11:38:59;101645.98;;;21.81;58.49
55755;BME280;41674;52.290;-1.474;2023-08-21T11:41:26;101659.58;;;21.32;60.35
55755;BME280;41674;52.290;-1.474;2023-08-21T11:44:03;101659.89;;;21.15;60.51
55755;BME280;41674;52.290;-1.474;2023-08-21T11:46:25;101663.11;;;20.02;65.14
55755;BME280;41674;52.290;-1.474;2023-08-21T11:48:55;101662.96;;;20.11;65.35
55755;BME280;41674;52.290;-1.474;2023-08-21T11:51:24;101656.70;;;20.29;64.30
55755;BME280;41674;52.290;-1.474;2023-08-21T11:53:54;101656.97;;;20.65;61.87
55755;BME280;41674;52.290;-1.474;2023-08-21T11:56:28;101656.67;;;20.94;61.34
55755;BME280;41674;52.290;-1.474;2023-08-21T11:58:53;101650.28;;;20.23;62.72
55755;BME280;41674;52.290;-1.474;2023-08-21T12:01:23;101651.77;;;20.90;61.95
55755;BME280;41674;52.290;-1.474;2023-08-21T12:03:52;101651.13;;;21.33;60.71
55755;BME280;41674;52.290;-1.474;2023-08-21T12:06:22;101646.97;;;21.77;59.32
55755;BME280;41674;52.290;-1.474;2023-08-21T12:08:51;101649.17;;;21.30;60.22
55755;BME280;41674;52.290;-1.474;2023-08-21T12:11:21;101634.97;;;21.67;61.05
55755;BME280;41674;52.290;-1.474;2023-08-21T12:13:50;101630.97;;;22.00;58.46
55755;BME280;41674;52.290;-1.474;2023-08-21T12:16:20;101638.98;;;21.31;58.99
55755;BME280;41674;52.290;-1.474;2023-08-21T12:18:49;101635.43;;;21.34;61.02
55755;BME280;41674;52.290;-1.474;2023-08-21T12:21:19;101644.21;;;20.60;63.91
55755;BME280;41674;52.290;-1.474;2023-08-21T12:23:48;101642.41;;;20.28;66.53
55755;BME280;41674;52.290;-1.474;2023-08-21T12:26:18;101630.32;;;21.50;61.41
55755;BME280;41674;52.290;-1.474;2023-08-21T12:28:48;101627.86;;;21.50;64.74
55755;BME280;41674;52.290;-1.474;2023-08-21T12:31:17;101627.43;;;21.25;61.52
55755;BME280;41674;52.290;-1.474;2023-08-21T12:33:46;101622.52;;;21.84;61.65
55755;BME280;41674;52.290;-1.474;2023-08-21T12:36:16;101614.31;;;21.65;59.03
55755;BME280;41674;52.290;-1.474;2023-08-21T12:38:45;101610.21;;;22.54;57.96
55755;BME280;41674;52.290;-1.474;2023-08-21T12:41:15;101611.55;;;21.89;58.74
55755;BME280;41674;52.290;-1.474;2023-08-21T12:43:44;101611.79;;;22.01;60.96
55755;BME280;41674;52.290;-1.474;2023-08-21T12:46:14;101615.21;;;21.59;56.74
55755;BME280;41674;52.290;-1.474;2023-08-21T12:48:43;101617.08;;;21.55;56.67
55755;BME280;41674;52.290;-1.474;2023-08-21T12:51:13;101613.35;;;21.93;54.94
55755;BME280;41674;52.290;-1.474;2023-08-21T12:53:43;101600.39;;;22.02;57.56